sensor_id;sensor_type;location;lat;lon;timestamp;pressure;altitude;pressure_sealevel;temperature;humidity
47240;BME280;32978;53.586;10.052;2023-04-05T00:00:15;102523.66;;;0.43;100.00
47240;BME280;32978;53.586;10.052;2023-04-05T00:05:12;102524.47;;;0.37;100.00
47240;BME280;32978;53.586;10.052;2023-04-05T00:10:09;102522.78;;;0.23;100.00
47240;BME280;32978;53.586;10.052;2023-04-05T00:15:06;102516.16;;;0.18;100.00
47240;BME280;32978;53.586;10.052;2023-04-05T00:20:02;102523.81;;;0.15;100.00
47240;BME280;32978;53.586;10.052;2023-04-05T00:25:03;102522.75;;;0.09;100.00
47240;BME280;32978;53.586;10.052;2023-04-05T00:30:00;102522.75;;;0.09;100.00
47240;BME280;32978;53.586;10.052;2023-04-05T00:34:57;102518.19;;;0.03;100.00
47240;BME280;32978;53.586;10.052;2023-04-05T00:39:53;102522.50;;;-0.03;100.00
47240;BME280;32978;53.586;10.052;2023-04-05T00:44:50;102525.41;;;-0.11;100.00
47240;BME280;32978;53.586;10.052;2023-04-05T00:49:46;102514.63;;;-0.17;100.00
47240;BME280;32978;53.586;10.052;2023-04-05T00:54:43;102506.97;;;-0.20;100.00
47240;BME280;32978;53.586;10.052;2023-04-05T00:59:39;102513.16;;;-0.20;100.00
47240;BME280;32978;53.586;10.052;2023-04-05T01:04:37;102499.50;;;-0.25;100.00
47240;BME280;32978;53.586;10.052;2023-04-05T01:09:56;102504.44;;;-0.29;100.00
47240;BME280;32978;53.586;10.052;2023-04-05T01:14:54;102506.91;;;-0.34;100.00
47240;BME280;32978;53.586;10.052;2023-04-05T01:19:53;102500.28;;;-0.38;100.00
47240;BME280;32978;53.586;10.052;2023-04-05T01:25:01;102499.63;;;-0.40;100.00
47240;BME280;32978;53.586;10.052;2023-04-05T01:30:16;102494.47;;;-0.48;100.00
47240;BME280;32978;53.586;10.052;2023-04-05T01:35:30;102480.38;;;-0.50;100.00
47240;BME280;32978;53.586;10.052;2023-04-05T01:40:29;102479.75;;;-0.52;100.00
47240;BME280;32978;53.586;10.052;2023-04-05T01:45:28;102471.84;;;-0.60;100.00
47240;BME280;32978;53.586;10.052;2023-04-05T01:50:24;102467.53;;;-0.61;100.00
47240;BME280;32978;53.586;10.052;2023-04-05T01:55:21;102468.34;;;-0.61;100.00
47240;BME280;32978;53.586;10.052;2023-04-05T02:00:17;102466.47;;;-0.60;100.00
47240;BME280;32978;53.586;10.052;2023-04-05T02:05:14;102461.94;;;-0.67;100.00
47240;BME280;32978;53.586;10.052;2023-04-05T02:10:11;102452.59;;;-0.71;100.00
47240;BME280;32978;53.586;10.052;2023-04-05T02:15:08;102461.06;;;-0.74;100.00
47240;BME280;32978;53.586;10.052;2023-04-05T02:20:08;102453.81;;;-0.80;100.00
47240;BME280;32978;53.586;10.052;2023-04-05T02:25:06;102457.72;;;-0.82;100.00
47240;BME280;32978;53.586;10.052;2023-04-05T02:30:06;102455.84;;;-0.82;100.00
47240;BME280;32978;53.586;10.052;2023-04-05T02:35:03;102452.31;;;-0.89;100.00
47240;BME280;32978;53.586;10.052;2023-04-05T02:40:00;102450.66;;;-0.90;100.00
47240;BME280;32978;53.586;10.052;2023-04-05T02:44:57;102450.03;;;-0.92;100.00
47240;BME280;32978;53.586;10.052;2023-04-05T02:49:53;102448.34;;;-0.93;100.00
47240;BME280;32978;53.586;10.052;2023-04-05T02:54:50;102446.06;;;-0.96;100.00
47240;BME280;32978;53.586;10.052;2023-04-05T02:59:46;102445.44;;;-0.98;100.00
47240;BME280;32978;53.586;10.052;2023-04-05T03:04:44;102451.41;;;-1.03;100.00
47240;BME280;32978;53.586;10.052;2023-04-05T03:09:41;102442.53;;;-1.03;100.00
47240;BME280;32978;53.586;10.052;2023-04-05T03:14:39;102443.31;;;-1.10;100.00
47240;BME280;32978;53.586;10.052;2023-04-05T03:19:36;102437.94;;;-1.10;100.00
47240;BME280;32978;53.586;10.052;2023-04-05T03:24:34;102434.63;;;-1.12;100.00
47240;BME280;32978;53.586;10.052;2023-04-05T03:29:31;102426.97;;;-1.15;100.00
47240;BME280;32978;53.586;10.052;2023-04-05T03:34:27;102429.66;;;-1.15;100.00
47240;BME280;32978;53.586;10.052;2023-04-05T03:39:24;102430.69;;;-1.16;100.00
47240;BME280;32978;53.586;10.052;2023-04-05T03:44:20;102427.75;;;-1.21;100.00
47240;BME280;32978;53.586;10.052;2023-04-05T03:49:17;102425.47;;;-1.24;100.00
47240;BME280;32978;53.586;10.052;2023-04-05T03:54:15;102434.94;;;-1.28;100.00
47240;BME280;32978;53.586;10.052;2023-04-05T03:59:11;102427.53;;;-1.26;100.00
47240;BME280;32978;53.586;10.052;2023-04-05T04:04:08;102430.41;;;-1.28;100.00
47240;BME280;32978;53.586;10.052;2023-04-05T04:09:05;102433.28;;;-1.29;100.00
47240;BME280;32978;53.586;10.052;2023-04-05T04:14:02;102415.50;;;-1.30;100.00
47240;BME280;32978;53.586;10.052;2023-04-05T04:18:58;102420.88;;;-1.30;100.00
47240;BME280;32978;53.586;10.052;2023-04-05T04:23:54;102413.88;;;-1.31;100.00
47240;BME280;32978;53.586;10.052;2023-04-05T04:28:54;102418.19;;;-1.30;100.00
47240;BME280;32978;53.586;10.052;2023-04-05T04:33:50;102416.16;;;-1.28;100.00
47240;BME280;32978;53.586;10.052;2023-04-05T04:38:47;102408.94;;;-1.28;100.00
47240;BME280;32978;53.586;10.052;2023-04-05T04:43:43;102417.59;;;-1.25;100.00
47240;BME280;32978;53.586;10.052;2023-04-05T04:48:42;102415.38;;;-1.22;100.00
47240;BME280;32978;53.586;10.052;2023-04-05T04:53:39;102410.22;;;-1.17;100.00
47240;BME280;32978;53.586;10.052;2023-04-05T04:58:35;102411.91;;;-1.09;100.00
47240;BME280;32978;53.586;10.052;2023-04-05T05:03:33;102409.53;;;-0.97;100.00
47240;BME280;32978;53.586;10.052;2023-04-05T05:08:30;102413.88;;;-0.90;100.00
47240;BME280;32978;53.586;10.052;2023-04-05T05:13:26;102419.06;;;-0.81;100.00
47240;BME280;32978;53.586;10.052;2023-04-05T05:18:23;102410.88;;;-0.67;100.00
47240;BME280;32978;53.586;10.052;2023-04-05T05:23:19;102417.94;;;-0.59;100.00
47240;BME280;32978;53.586;10.052;2023-04-05T05:28:16;102412.63;;;-0.39;100.00
47240;BME280;32978;53.586;10.052;2023-04-05T05:33:12;102411.19;;;-0.28;100.00
47240;BME280;32978;53.586;10.052;2023-04-05T05:38:09;102404.63;;;0.01;100.00
47240;BME280;32978;53.586;10.052;2023-04-05T05:43:09;102411.03;;;0.13;100.00
47240;BME280;32978;53.586;10.052;2023-04-05T05:48:06;102398.22;;;0.29;100.00
47240;BME280;32978;53.586;10.052;2023-04-05T05:53:02;102390.34;;;0.34;100.00
47240;BME280;32978;53.586;10.052;2023-04-05T05:57:59;102384.94;;;0.34;100.00
47240;BME280;32978;53.586;10.052;2023-04-05T06:02:55;102369.00;;;0.52;100.00
47240;BME280;32978;53.586;10.052;2023-04-05T06:07:54;102367.53;;;0.63;100.00
47240;BME280;32978;53.586;10.052;2023-04-05T06:12:51;102367.28;;;0.65;100.00
47240;BME280;32978;53.586;10.052;2023-04-05T06:17:48;102378.28;;;0.70;100.00
47240;BME280;32978;53.586;10.052;2023-04-05T06:22:44;102373.28;;;0.73;100.00
47240;BME280;32978;53.586;10.052;2023-04-05T06:27:41;102377.84;;;0.73;100.00
47240;BME280;32978;53.586;10.052;2023-04-05T06:32:37;102383.22;;;0.86;100.00
47240;BME280;32978;53.586;10.052;2023-04-05T06:37:34;102383.41;;;0.91;100.00
47240;BME280;32978;53.586;10.052;2023-04-05T06:42:30;102390.66;;;0.91;100.00
47240;BME280;32978;53.586;10.052;2023-04-05T06:47:27;102386.88;;;1.05;100.00
47240;BME280;32978;53.586;10.052;2023-04-05T06:52:23;102389.47;;;1.25;100.00
47240;BME280;32978;53.586;10.052;2023-04-05T06:57:20;102389.50;;;1.57;100.00
47240;BME280;32978;53.586;10.052;2023-04-05T07:02:16;102385.69;;;1.71;100.00
47240;BME280;32978;53.586;10.052;2023-04-05T07:07:13;102388.53;;;1.76;100.00
47240;BME280;32978;53.586;10.052;2023-04-05T07:12:09;102393.19;;;1.62;100.00
47240;BME280;32978;53.586;10.052;2023-04-05T07:17:06;102397.34;;;1.65;100.00
47240;BME280;32978;53.586;10.052;2023-04-05T07:22:02;102400.06;;;1.65;100.00
47240;BME280;32978;53.586;10.052;2023-04-05T07:26:59;102390.22;;;1.77;100.00
47240;BME280;32978;53.586;10.052;2023-04-05T07:31:55;102385.69;;;1.71;100.00
47240;BME280;32978;53.586;10.052;2023-04-05T07:36:52;102381.91;;;1.79;100.00
47240;BME280;32978;53.586;10.052;2023-04-05T07:41:48;102387.69;;;1.82;100.00
47240;BME280;32978;53.586;10.052;2023-04-05T07:46:45;102378.91;;;1.94;100.00
47240;BME280;32978;53.586;10.052;2023-04-05T07:51:44;102372.50;;;2.13;100.00
47240;BME280;32978;53.586;10.052;2023-04-05T07:56:42;102378.56;;;2.34;100.00
47240;BME280;32978;53.586;10.052;2023-04-05T08:01:39;102368.41;;;2.54;100.00
47240;BME280;32978;53.586;10.052;2023-04-05T08:06:35;102361.06;;;2.80;100.00
47240;BME280;32978;53.586;10.052;2023-04-05T08:11:32;102359.09;;;3.05;100.00
47240;BME280;32978;53.586;10.052;2023-04-05T08:16:29;102358.59;;;3.27;100.00
47240;BME280;32978;53.586;10.052;2023-04-05T08:21:25;102344.00;;;3.46;100.00
47240;BME280;32978;53.586;10.052;2023-04-05T08:26:22;102349.00;;;3.73;100.00
47240;BME280;32978;53.586;10.052;2023-04-05T08:31:19;102343.16;;;3.99;100.00
47240;BME280;32978;53.586;10.052;2023-04-05T08:36:16;102337.16;;;4.21;100.00
47240;BME280;32978;53.586;10.052;2023-04-05T08:41:13;102336.94;;;4.46;100.00
47240;BME280;32978;53.586;10.052;2023-04-05T08:46:15;102332.88;;;4.72;100.00
47240;BME280;32978;53.586;10.052;2023-04-05T08:51:16;102331.06;;;4.90;100.00
47240;BME280;32978;53.586;10.052;2023-04-05T08:56:21;102316.78;;;5.06;100.00
47240;BME280;32978;53.586;10.052;2023-04-05T09:01:20;102322.81;;;5.25;100.00
47240;BME280;32978;53.586;10.052;2023-04-05T09:06:18;102321.53;;;5.44;100.00
47240;BME280;32978;53.586;10.052;2023-04-05T09:11:16;102323.72;;;5.59;100.00
47240;BME280;32978;53.586;10.052;2023-04-05T09:16:15;102331.94;;;5.64;100.00
47240;BME280;32978;53.586;10.052;2023-04-05T09:21:11;102323.25;;;5.96;100.00
47240;BME280;32978;53.586;10.052;2023-04-05T09:26:18;102326.34;;;5.88;100.00
47240;BME280;32978;53.586;10.052;2023-04-05T09:31:28;102315.69;;;6.15;100.00
47240;BME280;32978;53.586;10.052;2023-04-05T09:36:26;102311.19;;;6.26;100.00
47240;BME280;32978;53.586;10.052;2023-04-05T09:41:23;102317.84;;;6.35;100.00
47240;BME280;32978;53.586;10.052;2023-04-05T09:46:28;102306.28;;;6.62;100.00
47240;BME280;32978;53.586;10.052;2023-04-05T09:51:35;102303.56;;;6.62;100.00
47240;BME280;32978;53.586;10.052;2023-04-05T09:56:34;102295.88;;;7.57;100.00
47240;BME280;32978;53.586;10.052;2023-04-05T10:01:31;102304.63;;;7.64;100.00
47240;BME280;32978;53.586;10.052;2023-04-05T10:06:35;102289.53;;;8.26;100.00
47240;BME280;32978;53.586;10.052;2023-04-05T10:11:35;102283.59;;;8.29;100.00
47240;BME280;32978;53.586;10.052;2023-04-05T10:16:36;102282.72;;;7.81;100.00
47240;BME280;32978;53.586;10.052;2023-04-05T10:21:34;102277.84;;;8.78;100.00
47240;BME280;32978;53.586;10.052;2023-04-05T10:26:44;102274.03;;;8.84;92.74
47240;BME280;32978;53.586;10.052;2023-04-05T10:31:49;102266.19;;;9.90;80.61
47240;BME280;32978;53.586;10.052;2023-04-05T10:36:56;102246.66;;;12.30;65.58
47240;BME280;32978;53.586;10.052;2023-04-05T10:41:59;102254.94;;;11.67;65.43
47240;BME280;32978;53.586;10.052;2023-04-05T10:46:56;102250.91;;;9.89;78.39
47240;BME280;32978;53.586;10.052;2023-04-05T10:51:54;102244.09;;;9.82;81.12
47240;BME280;32978;53.586;10.052;2023-04-05T10:56:51;102247.59;;;8.95;87.08
47240;BME280;32978;53.586;10.052;2023-04-05T11:01:48;102251.81;;;8.50;98.58
47240;BME280;32978;53.586;10.052;2023-04-05T11:06:46;102232.34;;;7.84;100.00
47240;BME280;32978;53.586;10.052;2023-04-05T11:11:45;102227.56;;;8.01;99.41
47240;BME280;32978;53.586;10.052;2023-04-05T11:16:45;102221.00;;;7.97;100.00
47240;BME280;32978;53.586;10.052;2023-04-05T11:21:42;102217.69;;;7.90;100.00
47240;BME280;32978;53.586;10.052;2023-04-05T11:31:57;102214.84;;;7.69;100.00
47240;BME280;32978;53.586;10.052;2023-04-05T11:36:57;102212.09;;;7.64;100.00
47240;BME280;32978;53.586;10.052;2023-04-05T11:42:10;102201.59;;;7.88;100.00
47240;BME280;32978;53.586;10.052;2023-04-05T11:47:08;102199.84;;;8.14;96.21
47240;BME280;32978;53.586;10.052;2023-04-05T11:52:17;102191.28;;;10.17;83.46
47240;BME280;32978;53.586;10.052;2023-04-05T11:57:19;102182.03;;;10.68;80.10
47240;BME280;32978;53.586;10.052;2023-04-05T12:02:18;102179.50;;;10.77;79.16
47240;BME280;32978;53.586;10.052;2023-04-05T12:07:16;102173.13;;;10.47;72.39
47240;BME280;32978;53.586;10.052;2023-04-05T12:12:16;102171.19;;;9.67;75.77
47240;BME280;32978;53.586;10.052;2023-04-05T12:17:12;102171.75;;;8.82;80.79
47240;BME280;32978;53.586;10.052;2023-04-05T12:22:09;102161.41;;;9.10;83.99
47240;BME280;32978;53.586;10.052;2023-04-05T12:27:05;102160.88;;;9.13;83.94
47240;BME280;32978;53.586;10.052;2023-04-05T12:32:02;102146.63;;;8.70;80.77
47240;BME280;32978;53.586;10.052;2023-04-05T12:36:59;102156.97;;;8.52;82.14
47240;BME280;32978;53.586;10.052;2023-04-05T12:41:58;102153.44;;;8.57;86.07
47240;BME280;32978;53.586;10.052;2023-04-05T12:47:00;102137.91;;;8.57;84.36
47240;BME280;32978;53.586;10.052;2023-04-05T12:52:04;102135.72;;;8.59;91.65
47240;BME280;32978;53.586;10.052;2023-04-05T12:57:01;102124.00;;;8.79;92.44
47240;BME280;32978;53.586;10.052;2023-04-05T13:01:59;102116.38;;;9.22;87.30
47240;BME280;32978;53.586;10.052;2023-04-05T13:06:56;102110.22;;;9.87;88.42
47240;BME280;32978;53.586;10.052;2023-04-05T13:11:52;102107.19;;;9.88;86.71
47240;BME280;32978;53.586;10.052;2023-04-05T13:16:49;102107.25;;;9.78;85.16
47240;BME280;32978;53.586;10.052;2023-04-05T13:21:45;102103.34;;;10.00;88.93
47240;BME280;32978;53.586;10.052;2023-04-05T13:26:42;102101.78;;;9.78;93.56
47240;BME280;32978;53.586;10.052;2023-04-05T13:31:38;102097.63;;;9.96;89.81
47240;BME280;32978;53.586;10.052;2023-04-05T13:36:36;102097.16;;;11.12;88.56
47240;BME280;32978;53.586;10.052;2023-04-05T13:41:32;102088.25;;;10.97;77.17
47240;BME280;32978;53.586;10.052;2023-04-05T13:46:29;102094.78;;;10.22;84.00
47240;BME280;32978;53.586;10.052;2023-04-05T13:51:25;102093.63;;;9.73;83.60
47240;BME280;32978;53.586;10.052;2023-04-05T13:56:26;102085.25;;;9.23;90.89
47240;BME280;32978;53.586;10.052;2023-04-05T14:01:23;102076.56;;;9.01;95.00
47240;BME280;32978;53.586;10.052;2023-04-05T14:06:19;102076.84;;;8.74;96.09
47240;BME280;32978;53.586;10.052;2023-04-05T14:11:16;102079.50;;;8.38;96.13
47240;BME280;32978;53.586;10.052;2023-04-05T14:16:13;102078.41;;;8.34;98.11
47240;BME280;32978;53.586;10.052;2023-04-05T14:21:09;102069.88;;;8.10;100.00
47240;BME280;32978;53.586;10.052;2023-04-05T14:26:06;102071.81;;;8.19;100.00
47240;BME280;32978;53.586;10.052;2023-04-05T14:31:03;102074.25;;;8.11;100.00
47240;BME280;32978;53.586;10.052;2023-04-05T14:35:59;102071.84;;;8.35;100.00
47240;BME280;32978;53.586;10.052;2023-04-05T14:40:56;102059.94;;;8.67;97.50
47240;BME280;32978;53.586;10.052;2023-04-05T14:45:52;102055.56;;;8.71;95.27
47240;BME280;32978;53.586;10.052;2023-04-05T14:50:49;102048.44;;;9.11;96.68
47240;BME280;32978;53.586;10.052;2023-04-05T14:55:45;102045.41;;;9.22;93.92
47240;BME280;32978;53.586;10.052;2023-04-05T15:00:43;102043.78;;;9.97;91.43
47240;BME280;32978;53.586;10.052;2023-04-05T15:05:40;102043.31;;;9.79;90.22
47240;BME280;32978;53.586;10.052;2023-04-05T15:10:38;102036.66;;;9.41;87.74
47240;BME280;32978;53.586;10.052;2023-04-05T15:15:35;102038.84;;;9.39;93.54
47240;BME280;32978;53.586;10.052;2023-04-05T15:20:33;102039.22;;;8.91;93.56
47240;BME280;32978;53.586;10.052;2023-04-05T15:25:30;102037.31;;;8.66;97.58
47240;BME280;32978;53.586;10.052;2023-04-05T15:30:27;102037.03;;;8.62;95.69
47240;BME280;32978;53.586;10.052;2023-04-05T15:35:24;102036.22;;;8.52;96.28
47240;BME280;32978;53.586;10.052;2023-04-05T15:40:20;102032.88;;;8.39;97.93
47240;BME280;32978;53.586;10.052;2023-04-05T15:45:17;102028.78;;;8.37;96.54
47240;BME280;32978;53.586;10.052;2023-04-05T15:50:14;102010.84;;;8.46;92.45
47240;BME280;32978;53.586;10.052;2023-04-05T15:55:11;102008.66;;;8.58;96.12
47240;BME280;32978;53.586;10.052;2023-04-05T16:00:07;102011.06;;;8.24;92.98
47240;BME280;32978;53.586;10.052;2023-04-05T16:05:04;102007.00;;;8.27;94.27
47240;BME280;32978;53.586;10.052;2023-04-05T16:10:02;102005.88;;;8.22;97.70
47240;BME280;32978;53.586;10.052;2023-04-05T16:14:58;102004.72;;;7.93;100.00
47240;BME280;32978;53.586;10.052;2023-04-05T16:19:55;102000.94;;;7.99;100.00
47240;BME280;32978;53.586;10.052;2023-04-05T16:24:52;101997.09;;;7.90;100.00
47240;BME280;32978;53.586;10.052;2023-04-05T16:29:49;102004.47;;;7.94;100.00
47240;BME280;32978;53.586;10.052;2023-04-05T16:34:45;101991.13;;;7.93;100.00
47240;BME280;32978;53.586;10.052;2023-04-05T16:39:42;101992.22;;;7.87;100.00
47240;BME280;32978;53.586;10.052;2023-04-05T16:44:38;101985.66;;;7.93;100.00
47240;BME280;32978;53.586;10.052;2023-04-05T16:49:34;101981.34;;;8.02;100.00
47240;BME280;32978;53.586;10.052;2023-04-05T16:54:33;101976.94;;;7.91;100.00
47240;BME280;32978;53.586;10.052;2023-04-05T16:59:29;101979.66;;;7.80;100.00
47240;BME280;32978;53.586;10.052;2023-04-05T17:04:27;101977.88;;;8.53;100.00
47240;BME280;32978;53.586;10.052;2023-04-05T17:09:24;101979.19;;;8.35;100.00
47240;BME280;32978;53.586;10.052;2023-04-05T17:14:24;101977.50;;;7.98;100.00
47240;BME280;32978;53.586;10.052;2023-04-05T17:19:21;101986.78;;;7.97;100.00
47240;BME280;32978;53.586;10.052;2023-04-05T17:24:18;101987.31;;;8.04;100.00
47240;BME280;32978;53.586;10.052;2023-04-05T17:29:14;101991.63;;;7.79;100.00
47240;BME280;32978;53.586;10.052;2023-04-05T17:34:12;101982.88;;;7.67;100.00
47240;BME280;32978;53.586;10.052;2023-04-05T17:39:10;101983.44;;;7.74;100.00
47240;BME280;32978;53.586;10.052;2023-04-05T17:44:07;101986.94;;;7.65;100.00
47240;BME280;32978;53.586;10.052;2023-04-05T17:49:03;101990.97;;;7.52;100.00
47240;BME280;32978;53.586;10.052;2023-04-05T17:54:00;101988.47;;;7.40;100.00
47240;BME280;32978;53.586;10.052;2023-04-05T17:58:56;101999.56;;;7.23;100.00
47240;BME280;32978;53.586;10.052;2023-04-05T18:03:53;101997.84;;;7.12;100.00
47240;BME280;32978;53.586;10.052;2023-04-05T18:08:50;102006.44;;;6.93;100.00
47240;BME280;32978;53.586;10.052;2023-04-05T18:13:46;102007.41;;;6.77;100.00
47240;BME280;32978;53.586;10.052;2023-04-05T18:18:43;102010.63;;;6.69;100.00
47240;BME280;32978;53.586;10.052;2023-04-05T18:23:39;102011.66;;;6.63;100.00
47240;BME280;32978;53.586;10.052;2023-04-05T18:28:36;102009.16;;;6.56;100.00
47240;BME280;32978;53.586;10.052;2023-04-05T18:33:32;102009.44;;;6.55;100.00
47240;BME280;32978;53.586;10.052;2023-04-05T18:38:28;102017.50;;;6.49;100.00
47240;BME280;32978;53.586;10.052;2023-04-05T18:43:25;102016.69;;;6.49;100.00
47240;BME280;32978;53.586;10.052;2023-04-05T18:48:22;102024.00;;;6.43;100.00
47240;BME280;32978;53.586;10.052;2023-04-05T18:53:20;102026.50;;;6.50;100.00
47240;BME280;32978;53.586;10.052;2023-04-05T18:58:18;102025.06;;;6.42;100.00
47240;BME280;32978;53.586;10.052;2023-04-05T19:03:15;102035.81;;;6.27;100.00
47240;BME280;32978;53.586;10.052;2023-04-05T19:08:11;102043.25;;;6.15;100.00
47240;BME280;32978;53.586;10.052;2023-04-05T19:13:09;102041.63;;;5.91;100.00
47240;BME280;32978;53.586;10.052;2023-04-05T19:18:05;102047.06;;;5.69;100.00
47240;BME280;32978;53.586;10.052;2023-04-05T19:23:02;102045.91;;;5.43;100.00
47240;BME280;32978;53.586;10.052;2023-04-05T19:27:58;102050.88;;;5.30;100.00
47240;BME280;32978;53.586;10.052;2023-04-05T19:32:55;102060.69;;;5.14;100.00
47240;BME280;32978;53.586;10.052;2023-04-05T19:37:51;102058.22;;;4.95;100.00
47240;BME280;32978;53.586;10.052;2023-04-05T19:42:48;102062.50;;;4.74;100.00
47240;BME280;32978;53.586;10.052;2023-04-05T19:47:45;102052.94;;;4.55;100.00
47240;BME280;32978;53.586;10.052;2023-04-05T19:52:47;102056.94;;;4.35;100.00
47240;BME280;32978;53.586;10.052;2023-04-05T19:57:43;102051.59;;;4.24;100.00
47240;BME280;32978;53.586;10.052;2023-04-05T20:02:40;102050.56;;;4.13;100.00
47240;BME280;32978;53.586;10.052;2023-04-05T20:07:36;102047.09;;;4.00;100.00
47240;BME280;32978;53.586;10.052;2023-04-05T20:12:33;102041.00;;;3.93;100.00
47240;BME280;32978;53.586;10.052;2023-04-05T20:17:30;102042.44;;;3.84;100.00
47240;BME280;32978;53.586;10.052;2023-04-05T20:22:26;102039.53;;;3.74;100.00
47240;BME280;32978;53.586;10.052;2023-04-05T20:27:24;102038.72;;;3.62;100.00
47240;BME280;32978;53.586;10.052;2023-04-05T20:32:21;102036.41;;;3.53;100.00
47240;BME280;32978;53.586;10.052;2023-04-05T20:37:20;102030.31;;;3.46;100.00
47240;BME280;32978;53.586;10.052;2023-04-05T20:42:16;102034.19;;;3.38;100.00
47240;BME280;32978;53.586;10.052;2023-04-05T20:52:24;102026.94;;;3.27;100.00
47240;BME280;32978;53.586;10.052;2023-04-05T20:57:24;102023.88;;;3.24;100.00
47240;BME280;32978;53.586;10.052;2023-04-05T21:02:21;102021.66;;;3.21;100.00
47240;BME280;32978;53.586;10.052;2023-04-05T21:07:17;102012.13;;;3.18;100.00
47240;BME280;32978;53.586;10.052;2023-04-05T21:12:14;102010.13;;;3.13;100.00
47240;BME280;32978;53.586;10.052;2023-04-05T21:17:11;102005.56;;;3.14;100.00
47240;BME280;32978;53.586;10.052;2023-04-05T21:22:07;102001.91;;;3.08;100.00
47240;BME280;32978;53.586;10.052;2023-04-05T21:27:03;101999.09;;;3.03;100.00
47240;BME280;32978;53.586;10.052;2023-04-05T21:32:00;101998.38;;;2.96;100.00
47240;BME280;32978;53.586;10.052;2023-04-05T21:36:56;101993.91;;;2.90;100.00
47240;BME280;32978;53.586;10.052;2023-04-05T21:41:53;101997.78;;;2.82;100.00
47240;BME280;32978;53.586;10.052;2023-04-05T21:46:49;102004.50;;;2.80;100.00
47240;BME280;32978;53.586;10.052;2023-04-05T21:51:46;101998.97;;;2.74;100.00
47240;BME280;32978;53.586;10.052;2023-04-05T21:56:42;101988.41;;;2.73;100.00
47240;BME280;32978;53.586;10.052;2023-04-05T22:01:39;101996.59;;;2.66;100.00
47240;BME280;32978;53.586;10.052;2023-04-05T22:06:35;101987.34;;;2.62;100.00
47240;BME280;32978;53.586;10.052;2023-04-05T22:11:32;101985.91;;;2.60;100.00
47240;BME280;32978;53.586;10.052;2023-04-05T22:16:31;101986.16;;;2.58;100.00
47240;BME280;32978;53.586;10.052;2023-04-05T22:21:27;101983.09;;;2.55;100.00
47240;BME280;32978;53.586;10.052;2023-04-05T22:26:24;101979.91;;;2.46;100.00
47240;BME280;32978;53.586;10.052;2023-04-05T22:31:21;101982.97;;;2.38;100.00
47240;BME280;32978;53.586;10.052;2023-04-05T22:36:17;101987.50;;;2.25;100.00
47240;BME280;32978;53.586;10.052;2023-04-05T22:41:14;101985.03;;;2.24;100.00
47240;BME280;32978;53.586;10.052;2023-04-05T22:46:11;101982.91;;;2.14;100.00
47240;BME280;32978;53.586;10.052;2023-04-05T22:51:07;101979.91;;;2.04;100.00
47240;BME280;32978;53.586;10.052;2023-04-05T22:56:04;101980.84;;;1.98;100.00
47240;BME280;32978;53.586;10.052;2023-04-05T23:01:00;101977.28;;;1.85;100.00
47240;BME280;32978;53.586;10.052;2023-04-05T23:05:57;101972.44;;;1.76;100.00
47240;BME280;32978;53.586;10.052;2023-04-05T23:10:54;101975.53;;;1.61;100.00
47240;BME280;32978;53.586;10.052;2023-04-05T23:15:50;101976.91;;;1.52;100.00
47240;BME280;32978;53.586;10.052;2023-04-05T23:20:47;101974.50;;;1.43;100.00
47240;BME280;32978;53.586;10.052;2023-04-05T23:25:44;101972.72;;;1.37;100.00
47240;BME280;32978;53.586;10.052;2023-04-05T23:30:41;101963.66;;;1.32;100.00
47240;BME280;32978;53.586;10.052;2023-04-05T23:35:38;101970.19;;;1.24;100.00
47240;BME280;32978;53.586;10.052;2023-04-05T23:40:34;101957.00;;;1.16;100.00
47240;BME280;32978;53.586;10.052;2023-04-05T23:45:31;101946.75;;;1.06;100.00
47240;BME280;32978;53.586;10.052;2023-04-05T23:50:27;101950.91;;;1.02;100.00
47240;BME280;32978;53.586;10.052;2023-04-05T23:55:24;101944.56;;;0.96;100.00
